createdAt,value
2018-06-05T00:01:09.535Z,0.80
2018-06-05T00:03:37.019Z,0.87
2018-06-05T00:06:04.428Z,0.90
2018-06-05T00:08:31.966Z,0.90
2018-06-05T00:11:00.317Z,0.90
2018-06-05T00:13:27.770Z,0.80
2018-06-05T00:15:55.938Z,0.63
2018-06-05T00:18:23.627Z,0.90
2018-06-05T00:20:51.060Z,1.00
2018-06-05T00:23:18.541Z,0.83
2018-06-05T00:25:46.066Z,0.80
2018-06-05T00:28:13.458Z,1.07
2018-06-05T00:30:41.355Z,0.87
2018-06-05T00:33:08.811Z,0.97
2018-06-05T00:35:36.264Z,0.83
2018-06-05T00:38:03.671Z,0.90
2018-06-05T00:40:31.131Z,0.90
2018-06-05T00:42:59.242Z,0.67
2018-06-05T00:45:26.655Z,0.90
2018-06-05T00:47:54.063Z,0.80
2018-06-05T00:50:21.675Z,0.80
2018-06-05T00:52:49.138Z,0.53
2018-06-05T00:55:16.587Z,0.70
2018-06-05T00:57:44.022Z,0.80
2018-06-05T01:00:11.439Z,0.90
2018-06-05T01:02:38.939Z,0.70
2018-06-05T01:05:06.363Z,0.90
2018-06-05T01:07:33.740Z,0.70
2018-06-05T01:10:01.151Z,0.60
2018-06-05T01:12:28.566Z,0.73
2018-06-05T01:14:56.860Z,0.60
2018-06-05T01:17:24.401Z,1.07
2018-06-05T01:19:52.583Z,0.60
2018-06-05T01:22:20.011Z,0.77
2018-06-05T01:24:47.405Z,0.70
2018-06-05T01:27:14.801Z,0.70
2018-06-05T01:29:42.302Z,0.50
2018-06-05T01:32:09.731Z,0.80
2018-06-05T01:34:37.125Z,0.90
2018-06-05T01:37:04.553Z,1.00
2018-06-05T01:39:31.935Z,0.77
2018-06-05T01:41:59.352Z,0.70
2018-06-05T01:44:26.957Z,0.53
2018-06-05T01:46:54.380Z,0.80
2018-06-05T01:49:21.849Z,0.50
2018-06-05T01:51:49.235Z,0.70
2018-06-05T01:54:16.669Z,0.80
2018-06-05T01:56:44.256Z,0.70
2018-06-05T01:59:11.664Z,0.90
2018-06-05T02:01:39.054Z,0.73
2018-06-05T02:04:06.610Z,0.70
2018-06-05T02:06:34.038Z,0.90
2018-06-05T02:09:01.438Z,0.83
2018-06-05T02:11:28.831Z,0.70
2018-06-05T02:13:57.458Z,0.70
2018-06-05T02:16:24.918Z,0.63
2018-06-05T02:18:52.359Z,0.60
2018-06-05T02:21:19.733Z,0.97
2018-06-05T02:23:47.303Z,0.60
2018-06-05T02:26:14.756Z,0.70
2018-06-05T02:28:42.231Z,0.53
2018-06-05T02:31:09.631Z,0.80
2018-06-05T02:33:37.049Z,0.60
2018-06-05T02:36:04.859Z,0.50
2018-06-05T02:40:01.712Z,0.47
2018-06-05T02:42:29.111Z,0.53
2018-06-05T02:44:56.505Z,0.80
2018-06-05T02:47:24.115Z,0.63
2018-06-05T02:49:51.565Z,0.70
2018-06-05T02:52:19.112Z,0.60
2018-06-05T02:54:46.587Z,0.90
2018-06-05T02:57:14.068Z,0.70
2018-06-05T02:59:41.460Z,0.60
2018-06-05T03:02:08.855Z,0.70
2018-06-05T03:04:36.336Z,0.70
2018-06-05T03:07:03.728Z,0.50
2018-06-05T03:09:31.228Z,0.70
2018-06-05T03:11:58.685Z,0.60
2018-06-05T03:14:26.063Z,0.70
2018-06-05T03:16:53.474Z,0.60
2018-06-05T03:19:20.867Z,0.80
2018-06-05T03:21:48.523Z,0.73
2018-06-05T03:24:15.987Z,0.67
2018-06-05T03:26:43.401Z,0.83
2018-06-05T03:29:10.930Z,0.50
2018-06-05T03:31:38.331Z,1.00
2018-06-05T03:34:06.715Z,0.90
2018-06-05T03:36:34.202Z,0.53
2018-06-05T03:39:01.643Z,0.70
2018-06-05T03:41:30.563Z,1.20
2018-06-05T03:43:58.096Z,0.60
2018-06-05T03:46:25.539Z,0.80
2018-06-05T03:48:52.948Z,0.80
2018-06-05T03:51:20.535Z,1.03
2018-06-05T03:53:47.964Z,0.83
2018-06-05T03:56:15.856Z,0.60
2018-06-05T03:58:43.430Z,0.70
2018-06-05T04:01:10.835Z,0.77
2018-06-05T04:03:38.356Z,0.60
2018-06-05T04:06:05.811Z,0.80
2018-06-05T04:08:33.288Z,0.90
2018-06-05T04:11:00.675Z,0.60
2018-06-05T04:13:28.174Z,0.70
2018-06-05T04:15:55.643Z,0.97
2018-06-05T04:18:23.134Z,0.73
2018-06-05T04:20:50.542Z,0.80
2018-06-05T04:23:18.006Z,0.60
2018-06-05T04:25:45.471Z,0.60
2018-06-05T04:28:12.874Z,0.80
2018-06-05T04:30:40.422Z,0.70
2018-06-05T04:33:08.144Z,0.90
2018-06-05T04:35:35.548Z,0.70
2018-06-05T04:38:02.935Z,0.83
2018-06-05T04:40:30.339Z,0.60
2018-06-05T04:42:57.787Z,1.00
2018-06-05T04:45:25.422Z,0.77
2018-06-05T04:47:52.989Z,0.67
2018-06-05T04:50:20.355Z,0.80
2018-06-05T04:52:47.806Z,0.70
2018-06-05T04:55:15.223Z,0.67
2018-06-05T04:57:42.815Z,0.80
2018-06-05T05:00:10.227Z,0.60
2018-06-05T05:02:38.252Z,0.80
2018-06-05T05:05:05.715Z,0.60
2018-06-05T05:07:33.138Z,0.70
2018-06-05T05:10:00.520Z,0.70
2018-06-05T05:12:27.940Z,1.20
2018-06-05T05:14:55.426Z,0.70
2018-06-05T05:17:22.831Z,0.60
2018-06-05T05:19:50.583Z,0.93
2018-06-05T05:22:18.081Z,0.60
2018-06-05T05:24:45.779Z,0.90
2018-06-05T05:27:13.172Z,0.80
2018-06-05T05:29:40.670Z,0.70
2018-06-05T05:32:08.170Z,0.80
2018-06-05T05:34:35.557Z,0.80
2018-06-05T05:37:03.043Z,0.63
2018-06-05T05:39:30.516Z,0.80
2018-06-05T05:41:58.735Z,0.70
2018-06-05T05:44:26.204Z,0.57
2018-06-05T05:46:53.607Z,0.70
2018-06-05T05:49:21.015Z,1.03
2018-06-05T05:51:49.209Z,0.50
2018-06-05T05:54:17.499Z,0.80
2018-06-05T05:56:44.871Z,0.80
2018-06-05T05:59:12.285Z,0.80
2018-06-05T06:01:39.671Z,0.80
2018-06-05T06:04:07.066Z,0.90
2018-06-05T06:06:34.488Z,0.80
2018-06-05T06:09:01.883Z,0.90
2018-06-05T06:11:29.274Z,0.70
2018-06-05T06:13:56.887Z,0.70
2018-06-05T06:16:24.302Z,0.63
2018-06-05T06:18:51.727Z,0.60
2018-06-05T06:21:19.316Z,1.00
2018-06-05T06:23:46.699Z,0.70
2018-06-05T06:26:14.132Z,0.70
2018-06-05T06:28:41.982Z,0.70
2018-06-05T06:31:09.399Z,0.70
2018-06-05T06:33:36.771Z,0.43
2018-06-05T06:36:04.180Z,0.60
2018-06-05T06:38:31.734Z,0.73
2018-06-05T06:40:59.195Z,0.60
2018-06-05T06:43:27.320Z,0.97
2018-06-05T06:45:54.705Z,0.50
2018-06-05T06:48:22.507Z,0.80
2018-06-05T06:50:50.880Z,0.50
2018-06-05T06:53:18.304Z,0.80
2018-06-05T06:55:45.719Z,0.70
2018-06-05T06:58:13.768Z,0.73
2018-06-05T07:00:41.203Z,0.70
2018-06-05T07:03:08.580Z,0.63
2018-06-05T07:05:35.984Z,0.70
2018-06-05T07:08:03.391Z,0.50
2018-06-05T07:10:30.826Z,0.60
2018-06-05T07:12:58.884Z,0.60
2018-06-05T07:15:26.263Z,0.60
2018-06-05T07:17:53.816Z,0.70
2018-06-05T07:20:21.285Z,0.70
2018-06-05T07:22:48.712Z,0.50
2018-06-05T07:25:16.089Z,0.70
2018-06-05T07:27:43.475Z,0.83
2018-06-05T07:30:10.994Z,0.60
2018-06-05T07:32:38.693Z,0.60
2018-06-05T07:35:06.120Z,0.70
2018-06-05T07:37:33.547Z,1.00
2018-06-05T07:40:01.060Z,0.60
2018-06-05T07:42:28.483Z,0.50
2018-06-05T07:44:55.907Z,0.90
2018-06-05T07:47:23.472Z,1.07
2018-06-05T07:49:50.848Z,0.60
2018-06-05T07:52:18.306Z,0.80
2018-06-05T07:54:45.760Z,0.70
2018-06-05T07:57:13.163Z,0.70
2018-06-05T07:59:40.667Z,0.60
2018-06-05T08:02:08.103Z,0.80
2018-06-05T08:04:35.579Z,0.70
2018-06-05T08:07:03.129Z,0.70
2018-06-05T08:09:30.595Z,0.80
2018-06-05T08:11:59.196Z,0.60
2018-06-05T08:14:26.639Z,0.60
2018-06-05T08:16:54.793Z,0.60
2018-06-05T08:19:22.255Z,0.67
2018-06-05T08:21:49.650Z,0.60
2018-06-05T08:24:17.083Z,0.50
2018-06-05T08:26:52.249Z,0.93
2018-06-05T08:29:19.997Z,0.50
2018-06-05T08:31:47.691Z,0.73
2018-06-05T08:34:15.198Z,0.60
2018-06-05T08:36:42.662Z,0.60
2018-06-05T08:39:10.133Z,0.50
2018-06-05T08:41:37.551Z,0.50
2018-06-05T08:44:05.047Z,0.60
2018-06-05T08:46:32.487Z,0.70
2018-06-05T08:48:59.947Z,0.30
2018-06-05T08:51:27.370Z,0.70
2018-06-05T08:53:54.778Z,0.50
2018-06-05T08:56:22.332Z,0.50
2018-06-05T08:58:49.760Z,0.63
2018-06-05T09:01:17.163Z,0.60
2018-06-05T09:03:44.558Z,0.57
2018-06-05T09:06:11.955Z,0.70
2018-06-05T09:08:39.391Z,0.80
2018-06-05T09:11:06.791Z,0.60
2018-06-05T09:13:34.193Z,0.80
2018-06-05T09:16:01.712Z,0.40
2018-06-05T09:18:29.148Z,0.60
2018-06-05T09:20:56.542Z,0.50
2018-06-05T09:23:23.958Z,0.50
2018-06-05T09:25:51.353Z,0.50
2018-06-05T09:28:18.991Z,0.60
2018-06-05T09:30:46.447Z,0.50
2018-06-05T09:33:13.847Z,0.67
2018-06-05T09:35:41.327Z,0.60
2018-06-05T09:38:08.720Z,0.70
2018-06-05T09:40:36.157Z,0.70
2018-06-05T09:43:03.559Z,0.77
2018-06-05T09:45:31.163Z,0.67
2018-06-05T09:47:58.565Z,0.73
2018-06-05T09:50:25.939Z,0.50
2018-06-05T09:52:53.574Z,0.80
2018-06-05T09:55:21.007Z,0.50
2018-06-05T09:57:48.401Z,0.60
2018-06-05T10:00:15.959Z,0.70
2018-06-05T10:02:43.354Z,1.00
2018-06-05T10:05:10.771Z,0.83
2018-06-05T10:07:38.147Z,0.70
2018-06-05T10:10:05.707Z,0.60
2018-06-05T10:12:33.187Z,0.70
2018-06-05T10:15:01.337Z,0.80
2018-06-05T10:17:28.767Z,0.70
2018-06-05T10:19:56.168Z,0.70
2018-06-05T10:22:23.623Z,0.90
2018-06-05T10:24:51.169Z,0.77
2018-06-05T10:27:18.539Z,0.80
2018-06-05T10:29:45.965Z,0.80
2018-06-05T10:32:13.446Z,0.77
2018-06-05T10:34:41.026Z,0.83
2018-06-05T10:37:08.679Z,1.00
2018-06-05T10:39:36.065Z,1.03
2018-06-05T10:42:03.541Z,0.80
2018-06-05T10:44:30.907Z,0.80
2018-06-05T10:46:58.311Z,0.90
2018-06-05T10:49:25.723Z,0.70
2018-06-05T10:51:53.193Z,0.73
2018-06-05T10:54:20.599Z,0.90
2018-06-05T10:56:48.004Z,0.70
2018-06-05T10:59:15.379Z,0.70
2018-06-05T11:01:42.931Z,0.53
2018-06-05T11:04:10.347Z,0.77
2018-06-05T11:06:37.904Z,0.63
2018-06-05T11:09:07.501Z,0.80
2018-06-05T11:11:34.883Z,0.90
2018-06-05T11:14:02.368Z,0.90
2018-06-05T11:16:29.808Z,0.80
2018-06-05T11:18:57.215Z,0.60
2018-06-05T11:21:25.051Z,1.13
2018-06-05T11:23:52.444Z,0.80
2018-06-05T11:26:19.845Z,0.60
2018-06-05T11:28:47.410Z,0.77
2018-06-05T11:31:14.807Z,0.80
2018-06-05T11:33:42.362Z,1.30
2018-06-05T11:36:09.799Z,0.90
2018-06-05T11:38:37.197Z,1.00
2018-06-05T11:41:04.734Z,0.60
2018-06-05T11:43:32.117Z,0.87
2018-06-05T11:45:59.659Z,1.00
2018-06-05T11:48:27.395Z,0.70
2018-06-05T11:50:55.450Z,0.57
2018-06-05T11:53:22.870Z,0.60
2018-06-05T11:55:50.371Z,0.80
2018-06-05T11:58:17.777Z,0.90
2018-06-05T12:00:45.329Z,0.60
2018-06-05T12:03:12.747Z,0.70
2018-06-05T12:05:40.228Z,0.60
2018-06-05T12:08:07.651Z,0.63
2018-06-05T12:10:35.064Z,0.70
2018-06-05T12:13:02.567Z,0.60
2018-06-05T12:15:29.965Z,0.50
2018-06-05T12:17:57.401Z,0.60
2018-06-05T12:20:24.796Z,0.40
2018-06-05T12:22:52.223Z,0.60
2018-06-05T12:25:19.609Z,0.70
2018-06-05T12:27:47.012Z,0.90
2018-06-05T12:30:14.418Z,0.83
2018-06-05T12:32:41.940Z,0.70
2018-06-05T12:35:09.371Z,0.40
2018-06-05T12:37:36.869Z,0.60
2018-06-05T12:40:04.399Z,0.67
2018-06-05T12:42:32.495Z,0.50
2018-06-05T12:44:59.884Z,0.57
2018-06-05T12:47:27.267Z,0.50
2018-06-05T12:49:54.679Z,0.60
2018-06-05T12:52:22.188Z,0.53
2018-06-05T12:54:49.624Z,0.60
2018-06-05T12:57:17.099Z,0.60
2018-06-05T12:59:44.485Z,0.50
2018-06-05T13:02:11.932Z,0.80
2018-06-05T13:04:39.347Z,0.60
2018-06-05T13:07:06.743Z,0.70
2018-06-05T13:09:34.156Z,0.60
2018-06-05T13:12:01.629Z,0.63
2018-06-05T13:14:29.031Z,0.60
2018-06-05T13:16:56.427Z,0.50
2018-06-05T13:19:23.927Z,0.70
2018-06-05T13:21:51.332Z,0.90
2018-06-05T13:24:18.730Z,0.70
2018-06-05T13:26:46.318Z,0.70
2018-06-05T13:29:14.314Z,0.83
2018-06-05T13:31:41.723Z,0.57
2018-06-05T13:34:09.126Z,0.50
2018-06-05T13:36:36.740Z,0.60
2018-06-05T13:39:06.556Z,0.50
2018-06-05T13:41:33.980Z,0.50
2018-06-05T13:44:01.494Z,0.60
2018-06-05T13:46:29.021Z,0.50
2018-06-05T13:48:56.419Z,0.40
2018-06-05T13:51:23.910Z,0.60
2018-06-05T13:53:51.532Z,0.50
2018-06-05T13:56:19.671Z,0.50
2018-06-05T13:58:47.311Z,0.70
2018-06-05T14:01:15.298Z,0.60
2018-06-05T14:03:42.851Z,0.93
2018-06-05T14:06:10.307Z,0.90
2018-06-05T14:08:38.475Z,0.70
2018-06-05T14:11:06.143Z,1.07
2018-06-05T14:13:33.599Z,0.73
2018-06-05T14:16:01.004Z,0.40
2018-06-05T14:18:28.611Z,0.80
2018-06-05T14:20:56.151Z,0.67
2018-06-05T14:23:23.625Z,0.57
2018-06-05T14:25:51.012Z,0.60
2018-06-05T14:28:18.435Z,0.60
2018-06-05T14:30:45.835Z,1.20
2018-06-05T14:33:13.382Z,0.60
2018-06-05T14:35:40.815Z,0.50
2018-06-05T14:38:09.586Z,0.60
2018-06-05T14:40:37.066Z,0.50
2018-06-05T14:43:04.483Z,0.90
2018-06-05T14:45:32.066Z,0.87
2018-06-05T14:47:59.452Z,0.70
2018-06-05T14:50:27.679Z,0.60
2018-06-05T14:52:55.679Z,0.53
2018-06-05T14:55:23.095Z,0.50
2018-06-05T14:57:50.557Z,0.50
2018-06-05T15:00:18.049Z,0.60
2018-06-05T15:02:45.447Z,0.50
2018-06-05T15:05:12.842Z,0.40
2018-06-05T15:07:40.507Z,0.40
2018-06-05T15:10:08.008Z,0.70
2018-06-05T15:12:35.423Z,0.60
2018-06-05T15:15:02.835Z,0.60
2018-06-05T15:17:30.238Z,0.70
2018-06-05T15:19:57.619Z,0.67
2018-06-05T15:22:25.238Z,0.80
2018-06-05T15:24:52.626Z,0.73
2018-06-05T15:27:20.053Z,1.00
2018-06-05T15:29:47.433Z,0.90
2018-06-05T15:32:15.064Z,0.90
2018-06-05T15:34:42.473Z,0.67
2018-06-05T15:37:09.891Z,0.70
2018-06-05T15:39:37.347Z,0.80
2018-06-05T15:42:04.756Z,0.73
2018-06-05T15:44:32.215Z,0.63
2018-06-05T15:46:59.611Z,0.80
2018-06-05T15:49:27.175Z,0.60
2018-06-05T15:51:54.571Z,0.60
2018-06-05T15:54:22.091Z,0.70
2018-06-05T15:56:49.519Z,0.60
2018-06-05T15:59:17.047Z,0.60
2018-06-05T16:01:44.503Z,0.60
2018-06-05T16:04:11.925Z,0.80
2018-06-05T16:06:39.299Z,0.60
2018-06-05T16:09:08.642Z,0.80
2018-06-05T16:11:36.175Z,0.70
2018-06-05T16:14:03.739Z,0.50
2018-06-05T16:16:31.136Z,0.40
2018-06-05T16:18:58.539Z,0.60
2018-06-05T16:21:26.045Z,0.70
2018-06-05T16:23:54.375Z,0.60
2018-06-05T16:26:22.137Z,0.70
2018-06-05T16:28:49.524Z,0.70
2018-06-05T16:31:16.927Z,0.60
2018-06-05T16:33:44.318Z,0.70
2018-06-05T16:36:11.955Z,0.70
2018-06-05T16:38:39.353Z,0.50
2018-06-05T16:41:06.757Z,0.90
2018-06-05T16:43:34.149Z,0.70
2018-06-05T16:46:01.593Z,0.40
2018-06-05T16:48:29.874Z,0.50
2018-06-05T16:50:57.251Z,0.60
2018-06-05T16:53:24.761Z,0.53
2018-06-05T16:55:52.942Z,0.60
2018-06-05T16:58:20.576Z,0.70
2018-06-05T17:00:48.012Z,0.50
2018-06-05T17:03:15.900Z,0.60
2018-06-05T17:05:43.292Z,0.50
2018-06-05T17:08:10.747Z,0.50
2018-06-05T17:10:38.167Z,0.60
2018-06-05T17:13:05.633Z,0.50
2018-06-05T17:15:33.055Z,0.50
2018-06-05T17:18:00.443Z,0.60
2018-06-05T17:20:28.443Z,0.53
2018-06-05T17:22:55.931Z,0.40
2018-06-05T17:25:23.527Z,0.60
2018-06-05T17:27:50.991Z,0.60
2018-06-05T17:30:18.487Z,0.60
2018-06-05T17:32:46.125Z,0.60
2018-06-05T17:35:13.571Z,0.60
2018-06-05T17:37:41.718Z,0.53
2018-06-05T17:40:09.422Z,0.77
2018-06-05T17:42:36.842Z,0.90
2018-06-05T17:45:04.251Z,1.10
2018-06-05T17:47:31.806Z,0.90
2018-06-05T17:49:59.287Z,0.90
2018-06-05T17:52:26.683Z,0.63
2018-06-05T17:54:55.488Z,0.90
2018-06-05T17:57:23.012Z,0.67
2018-06-05T17:59:51.339Z,0.50
2018-06-05T18:02:19.387Z,0.70
2018-06-05T18:04:47.399Z,0.70
2018-06-05T18:07:15.006Z,0.60
2018-06-05T18:09:42.667Z,0.80
2018-06-05T18:12:10.147Z,0.80
2018-06-05T18:14:37.700Z,0.60
2018-06-05T18:17:05.383Z,0.80
2018-06-05T18:19:32.768Z,0.70
2018-06-05T18:22:00.246Z,0.90
2018-06-05T18:24:27.700Z,0.80
2018-06-05T18:26:55.155Z,0.83
2018-06-05T18:29:23.200Z,0.80
2018-06-05T18:31:50.642Z,0.70
2018-06-05T18:34:18.632Z,0.80
2018-06-05T18:36:46.171Z,0.83
2018-06-05T18:39:13.567Z,0.57
2018-06-05T18:41:41.047Z,0.80
2018-06-05T18:44:08.512Z,1.10
2018-06-05T18:46:35.937Z,1.13
2018-06-05T18:49:06.327Z,1.10
2018-06-05T18:51:34.231Z,1.27
2018-06-05T18:54:02.363Z,1.20
2018-06-05T18:56:29.756Z,5.70
2018-06-05T18:58:58.440Z,5.37
2018-06-05T19:01:25.998Z,1.27
2018-06-05T19:03:53.770Z,0.80
2018-06-05T19:06:21.156Z,1.00
2018-06-05T19:08:48.660Z,0.70
2018-06-05T19:11:16.986Z,0.90
2018-06-05T19:13:44.480Z,0.70
2018-06-05T19:16:11.904Z,0.70
2018-06-05T19:18:39.295Z,0.80
2018-06-05T19:21:06.699Z,0.70
2018-06-05T19:23:34.095Z,0.80
2018-06-05T19:26:01.542Z,0.90
2018-06-05T19:28:29.180Z,0.90
2018-06-05T19:30:56.593Z,6.63
2018-06-05T19:33:24.030Z,1.10
2018-06-05T19:35:51.461Z,1.37
2018-06-05T19:38:19.039Z,0.90
2018-06-05T19:40:46.474Z,0.77
2018-06-05T19:43:14.004Z,0.80
2018-06-05T19:45:41.482Z,0.90
2018-06-05T19:48:08.917Z,1.10
2018-06-05T19:50:36.484Z,1.10
2018-06-05T19:53:03.884Z,1.30
2018-06-05T19:55:31.393Z,1.40
2018-06-05T19:57:58.985Z,1.30
2018-06-05T20:00:26.523Z,1.60
2018-06-05T20:02:54.000Z,1.90
2018-06-05T20:05:22.142Z,1.60
2018-06-05T20:07:49.529Z,1.40
2018-06-05T20:10:17.583Z,1.53
2018-06-05T20:12:44.979Z,1.50
2018-06-05T20:15:14.268Z,1.60
2018-06-05T20:17:41.898Z,1.47
2018-06-05T20:20:09.647Z,1.53
2018-06-05T20:22:37.035Z,2.17
2018-06-05T20:25:04.887Z,1.60
2018-06-05T20:27:32.322Z,1.90
2018-06-05T20:29:59.729Z,1.90
2018-06-05T20:32:27.138Z,2.27
2018-06-05T20:34:54.912Z,1.60
2018-06-05T20:37:22.375Z,1.70
2018-06-05T20:39:49.839Z,1.70
2018-06-05T20:42:17.414Z,1.67
2018-06-05T20:44:44.846Z,1.83
2018-06-05T20:47:12.390Z,7.30
2018-06-05T20:49:40.927Z,7.00
2018-06-05T20:52:08.475Z,6.50
2018-06-05T20:54:35.987Z,6.60
2018-06-05T20:57:04.112Z,8.40
2018-06-05T20:59:31.767Z,10.43
2018-06-05T21:01:59.152Z,8.07
2018-06-05T21:04:26.679Z,8.20
2018-06-05T21:06:54.196Z,8.03
2018-06-05T21:09:21.584Z,8.13
2018-06-05T21:11:48.983Z,12.17
2018-06-05T21:14:16.503Z,8.60
2018-06-05T21:16:43.925Z,7.13
2018-06-05T21:19:11.396Z,4.20
2018-06-05T21:21:38.803Z,4.50
2018-06-05T21:24:06.770Z,4.40
2018-06-05T21:26:34.190Z,4.70
2018-06-05T21:29:01.644Z,4.17
2018-06-05T21:31:29.045Z,2.20
2018-06-05T21:33:56.438Z,1.80
2018-06-05T21:36:23.911Z,2.10
2018-06-05T21:38:51.290Z,2.10
2018-06-05T21:41:18.840Z,1.93
2018-06-05T21:43:46.246Z,2.10
2018-06-05T21:46:13.638Z,1.90
2018-06-05T21:48:41.040Z,2.00
2018-06-05T21:51:08.436Z,2.20
2018-06-05T21:53:36.126Z,1.83
2018-06-05T21:56:03.563Z,2.10
2018-06-05T21:58:30.954Z,1.80
2018-06-05T22:00:58.384Z,1.93
2018-06-05T22:03:25.932Z,2.57
2018-06-05T22:05:53.370Z,2.20
2018-06-05T22:08:20.851Z,2.13
2018-06-05T22:10:48.236Z,2.40
2018-06-05T22:13:15.639Z,2.37
2018-06-05T22:15:43.039Z,2.37
2018-06-05T22:18:10.754Z,2.97
2018-06-05T22:20:38.110Z,2.20
2018-06-05T22:23:05.583Z,1.87
2018-06-05T22:25:32.968Z,2.10
2018-06-05T22:28:00.363Z,2.00
2018-06-05T22:30:27.983Z,1.80
2018-06-05T22:32:55.371Z,1.70
2018-06-05T22:35:23.035Z,1.67
2018-06-05T22:37:50.439Z,1.90
2018-06-05T22:40:17.813Z,1.53
2018-06-05T22:42:45.199Z,1.97
2018-06-05T22:45:12.578Z,1.57
2018-06-05T22:47:40.159Z,1.57
2018-06-05T22:50:07.573Z,1.83
2018-06-05T22:52:34.967Z,1.50
2018-06-05T22:55:02.531Z,1.40
2018-06-05T22:57:29.962Z,2.00
2018-06-05T22:59:57.398Z,1.73
2018-06-05T23:02:24.891Z,2.30
2018-06-05T23:04:52.375Z,2.10
2018-06-05T23:07:19.743Z,1.70
2018-06-05T23:09:47.271Z,1.73
2018-06-05T23:12:14.730Z,2.20
2018-06-05T23:14:42.191Z,1.57
2018-06-05T23:17:09.588Z,1.77
2018-06-05T23:19:37.095Z,1.30
2018-06-05T23:22:04.480Z,1.40
2018-06-05T23:24:31.859Z,1.23
2018-06-05T23:26:59.317Z,1.30
2018-06-05T23:29:26.791Z,1.47
2018-06-05T23:31:54.168Z,1.63
2018-06-05T23:34:21.571Z,1.33
2018-06-05T23:36:48.983Z,1.57
2018-06-05T23:39:16.440Z,1.67
2018-06-05T23:41:43.896Z,1.20
2018-06-05T23:44:11.336Z,1.30
2018-06-05T23:46:38.808Z,1.50
2018-06-05T23:49:06.203Z,1.67
2018-06-05T23:51:33.674Z,1.30
2018-06-05T23:54:01.077Z,1.33
2018-06-05T23:56:28.546Z,1.50
2018-06-05T23:58:56.009Z,1.50
